ADDS METAR Data INFO
IDs: Format: Raw Decoded Include TAF

Data at: 0922 UTC 25 Feb 2018

K6R3 250915Z AUTO 00000KT 10SM -TSRA OVC036 12/10 A2999 RMK AO2 LTG DSNT E THRU W T01230100
K6R3 250855Z AUTO 00000KT 10SM -VCTSRA SCT021 BKN038 BKN044 13/10 A2998 RMK AO2 LTG DSNT ALQS P0017 60112 T01250102
K6R3 250835Z AUTO 00000KT 4SM RA SCT021 BKN035 OVC042 13/11 A2998 RMK AO2 LTG DSNT E AND SW P0017 T01250110
K6R3 250815Z AUTO 03004KT 5SM -RA SCT006 BKN033 OVC041 12/10 A2999 RMK AO2 LTG DSNT N NE AND SW P0012 T01210100
K6R3 250755Z AUTO 35008KT 2SM +RA OVC004 14/13 A3000 RMK AO2 LTG DSNT NE AND NW P0077 T01430130
K6R3 250735Z AUTO 00000KT 2SM +VCTSRA BKN007 OVC017 15/14 A2997 RMK AO2 LTG DSNT NE AND W P0048 T01530140
K6R3 250715Z AUTO 02007G14KT 2SM +TSRA BKN004 OVC014 17/16 A2997 RMK AO2 VIS 1 1/4V3 LTG DSNT N AND NE P0024 T01730159
K6R3 250655Z AUTO 01008KT 2SM +RA SCT004 SCT007 OVC013 22/20 A2997 RMK AO2 LTG DSNT NW THRU E P0017 T02160204
K6R3 250640Z AUTO 00000KT 2SM TS BR SCT010 BKN016 OVC021 22/20 A2996 RMK AO2 VIS 1/4V5 LTG DSNT NE E AND W P0001 T02160203
K6R3 250615Z AUTO 00000KT 4SM -RA SCT011 BKN016 OVC032 22/20 A2997 RMK AO2 LTG DSNT W THRU E T02160203
K6R3 250555Z AUTO 00000KT 4SM -RA BKN012 OVC022 22/20 A2996 RMK AO2 T02160202 10236 20216 402700215
K6R3 250535Z AUTO 00000KT 5SM BR BKN024 OVC029 22/20 A2997 RMK AO2 LTG DSNT E AND SE T02170201
K6R3 250515Z AUTO 18003KT 5SM BR BKN020 OVC025 22/20 A2996 RMK AO2 LTG DSNT SE AND S T02180201
K6R3 250455Z AUTO 21003KT 5SM BR BKN020 OVC027 22/20 A2997 RMK AO2 LTG DSNT S T02200202
K6R3 250435Z AUTO 20003KT 5SM BR SCT020 BKN027 22/20 A2996 RMK AO2 T02170200
K6R3 250415Z AUTO 19004KT 7SM DZ SCT011 BKN020 OVC027 22/20 A2996 RMK AO2 T02210200
K6R3 250355Z AUTO 21004KT 7SM -RA SCT025 22/20 A2996 RMK AO2 T02240199
K6R3 250335Z AUTO 17007KT 7SM SCT015 SCT022 SCT028 23/20 A2992 RMK AO2 T02250198
K6R3 250315Z AUTO 17004KT 7SM SCT015 BKN024 OVC032 23/20 A2995 RMK AO2 T02250198
K6R3 250255Z AUTO 20004KT 7SM SCT021 BKN026 OVC046 23/20 A2995 RMK AO2 T02250198
K6R3 250235Z AUTO 20004KT 7SM -RA SCT020 BKN027 OVC042 23/20 A2993 RMK AO2 T02260197
K6R3 250215Z AUTO 17007KT 7SM SCT025 OVC030 23/20 A2993 RMK AO2 T02300195
K6R3 250155Z AUTO 19005KT 7SM BKN025 OVC048 23/20 A2993 RMK AO2 T02300195
K6R3 250135Z AUTO 19007KT 7SM BKN025 OVC030 23/19 A2992 RMK AO2 T02320193
K6R3 250115Z AUTO 18006KT 7SM OVC025 23/19 A2991 RMK AO2 T02330192
K6R3 250055Z AUTO 19008KT 10SM -RA BKN027 BKN034 OVC045 23/19 A2990 RMK AO2 T02330190
K6R3 250035Z AUTO 19008KT 7SM BKN027 BKN033 OVC042 24/19 A2989 RMK AO2 T02350189
K6R3 250015Z AUTO 19007KT 7SM BKN029 BKN035 BKN060 23/19 A2989 RMK AO2 T02340186
K6R3 242355Z AUTO 18006KT 7SM SCT033 24/19 A2988 RMK AO2 T02360185 10270 20236
K6R3 242335Z AUTO 18005KT 7SM SCT031 24/18 A2988 RMK AO2 T02380182
K6R3 242315Z AUTO 19007KT 7SM CLR 25/18 A2987 RMK AO2 T02450175
K6R3 242255Z AUTO 19010KT 7SM SCT070 SCT085 BKN090 25/18 A2987 RMK AO2 T02450177
K6R3 242235Z AUTO 18008KT 5SM HZ SCT038 BKN060 OVC075 25/18 A2987 RMK AO2 T02450175
K6R3 242215Z AUTO 19009G15KT 7SM SCT038 BKN048 OVC075 24/17 A2987 RMK AO2 T02440171
K6R3 242155Z AUTO 20011G14KT 7SM -RA SCT037 BKN050 OVC070 25/17 A2988 RMK AO2 T02450172
K6R3 242135Z AUTO 20010G18KT 7SM SCT036 SCT045 BKN055 26/17 A2988 RMK AO2 T02550165
K6R3 242115Z AUTO 20010G23KT 7SM SCT035 BKN055 26/16 A2988 RMK AO2 T02620163
K6R3 242055Z AUTO 19009G17KT 7SM SCT035 BKN047 BKN055 26/17 A2988 RMK AO2 T02610172
K6R3 242035Z AUTO 20013G18KT 7SM BKN035 BKN042 BKN055 26/17 A2989 RMK AO2 LTG DSNT E T02590173
K6R3 242015Z AUTO 19014G23KT 7SM BKN033 BKN042 OVC055 26/17 A2989 RMK AO2 T02570171
K6R3 241955Z AUTO 17014G19KT 7SM SCT031 BKN039 BKN045 26/17 A2989 RMK AO2 T02630172
K6R3 241935Z AUTO 18013G19KT 7SM SCT030 SCT039 BKN060 26/18 A2990 RMK AO2 T02610175
K6R3 241915Z AUTO 19017G21KT 7SM SCT029 SCT034 BKN042 26/18 A2991 RMK AO2 LTG DSNT N T02620175
K6R3 241855Z AUTO 19021G25KT 7SM BKN029 BKN038 BKN048 27/18 A2992 RMK AO2 LTG DSNT NW T02700178
K6R3 241835Z AUTO 20017G24KT 7SM SCT027 BKN038 OVC050 26/18 A2993 RMK AO2 LTG DSNT W AND NW T02610177
K6R3 241815Z AUTO 19019G27KT 7SM BKN027 BKN032 BKN038 26/18 A2993 RMK AO2 LTG DSNT NW T02590180
K6R3 241755Z AUTO 18013G24KT 7SM BKN024 BKN034 BKN041 26/18 A2994 RMK AO2 60001 T02570184 10258 20215
K6R3 241735Z AUTO 17012G20KT 7SM BKN021 OVC027 25/19 A2994 RMK AO2 LTG DSNT NW T02500193
K6R3 241715Z AUTO 19010G16KT 4SM HZ BKN021 BKN029 BKN047 25/20 A2996 RMK AO2 T02490203
K6R3 241655Z AUTO 16008KT 5SM BR SCT015 BKN021 BKN026 23/21 A2996 RMK AO2 P0001 T02270205
K6R3 241635Z AUTO 20006KT 7SM RA OVC015 22/20 A2998 RMK AO2 T02210195
K6R3 241615Z AUTO 19005G14KT 7SM OVC015 23/19 A2998 RMK AO2 T02300192
K6R3 241555Z AUTO 18010G20KT 7SM OVC017 23/19 A2999 RMK AO2 T02300190
K6R3 241535Z AUTO 18012G18KT 5SM HZ BKN015 BKN019 BKN027 23/20 A2997 RMK AO2 T02300195
K6R3 241515Z AUTO 17009G14KT 7SM BKN013 OVC018 23/20 A2998 RMK AO2 LTG DSNT NE T02310197
K6R3 241455Z AUTO 19011G14KT 7SM OVC013 23/20 A2999 RMK AO2 T02290198
K6R3 241435Z AUTO 18008G17KT 5SM BR BKN010 OVC016 23/20 A2999 RMK AO2 T02250199
K6R3 241415Z AUTO 18011G14KT 5SM BR OVC010 22/20 A2999 RMK AO2 T02210200
K6R3 241355Z AUTO 18008KT 5SM BR SCT010 BKN014 OVC021 22/20 A2999 RMK AO2 T02180200
K6R3 241335Z AUTO 17006KT 5SM -RA BKN010 OVC021 22/20 A2999 RMK AO2 T02160200
K6R3 241315Z AUTO 17005KT 5SM BR BKN010 BKN013 OVC019 22/20 A2999 RMK AO2 T02150200
K6R3 241255Z AUTO 17006KT 5SM -RA SCT010 BKN014 OVC041 22/20 A2999 RMK AO2 T02160200
K6R3 241235Z AUTO 18005KT 7SM SCT010 BKN036 OVC042 22/20 A2999 RMK AO2 T02160199
K6R3 241210Z AUTO 18008KT 7SM OVC010 22/20 A2999 RMK AO2 T02150198
K6R3 241155Z AUTO 18006KT 7SM -DZ OVC010 22/20 A2999 RMK AO2 T02160200 10222 20216
K6R3 241135Z AUTO 18010KT 7SM OVC010 22/20 A2998 RMK AO2 T02170200
K6R3 241115Z AUTO 17006KT 7SM RA OVC008 22/20 A2997 RMK AO2 T02170201
K6R3 241055Z AUTO 17007G15KT 5SM -RA OVC010 22/20 A2997 RMK AO2 T02200201
K6R3 241035Z AUTO 18007KT 5SM -RA OVC010 22/20 A2997 RMK AO2 T02200202
K6R3 241015Z AUTO 18007KT 7SM OVC010 22/20 A2997 RMK AO2 T02200202
K6R3 240955Z AUTO 17010G15KT 7SM BKN012 OVC018 22/20 A2997 RMK AO2 T02200201
K6R3 240935Z AUTO 18008KT 7SM BKN010 OVC025 22/20 A2998 RMK AO2 T02200201
K6R3 240915Z AUTO 18008KT 7SM BKN010 OVC024 22/20 A2999 RMK AO2 T02210201
K6R3 240855Z AUTO 18009G14KT 7SM OVC010 22/20 A3000 RMK AO2 T02210202
K6R3 240835Z AUTO 18008KT 7SM OVC010 22/20 A3000 RMK AO2 T02200202
K6R3 240815Z AUTO 19007KT 5SM BR BKN010 OVC016 22/20 A3001 RMK AO2 T02210200
K6R3 240755Z AUTO 18007KT 5SM BR OVC008 22/20 A3001 RMK AO2 T02210201
K6R3 240735Z AUTO 19007KT 7SM OVC010 22/20 A3001 RMK AO2 T02210200
K6R3 240715Z AUTO 18009G15KT 7SM OVC010 22/20 A3002 RMK AO2 T02210200
K6R3 240655Z AUTO 18007KT 7SM OVC010 22/20 A3002 RMK AO2 T02210200
K6R3 240635Z AUTO 18007KT 7SM OVC010 22/20 A3003 RMK AO2 T02210199
K6R3 240615Z AUTO 18009G14KT 7SM OVC010 22/20 A3003 RMK AO2 T02210198
K6R3 240555Z AUTO 17008KT 7SM OVC010 22/20 A3004 RMK AO2 T02200197 10231 20213 402820132
K6R3 240535Z AUTO 18008KT 7SM OVC010 22/20 A3005 RMK AO2 T02200196
K6R3 240515Z AUTO 17007G16KT 7SM OVC010 22/20 A3005 RMK AO2 T02200196
K6R3 240455Z AUTO 17005KT 7SM OVC010 22/20 A3006 RMK AO2 T02200196
K6R3 240435Z AUTO 17006KT 7SM OVC010 22/20 A3005 RMK AO2 T02170195
K6R3 240415Z AUTO 16006KT 7SM OVC012 22/20 A3006 RMK AO2 T02180195
K6R3 240355Z AUTO 18004KT 7SM OVC012 22/19 A3006 RMK AO2 T02160193
K6R3 240335Z AUTO 17006KT 7SM OVC012 22/19 A3006 RMK AO2 T02170193
K6R3 240315Z AUTO 17006KT 7SM OVC012 22/19 A3007 RMK AO2 T02160193
K6R3 240255Z AUTO 17004KT 7SM OVC012 22/19 A3007 RMK AO2 T02150192
K6R3 240235Z AUTO 18007KT 7SM OVC014 22/19 A3007 RMK AO2 T02160191
K6R3 240215Z AUTO 17007KT 7SM BKN014 OVC021 22/19 A3007 RMK AO2 T02150191
K6R3 240155Z AUTO 18006KT 7SM SCT016 22/19 A3007 RMK AO2 T02150190
K6R3 240135Z AUTO 17006KT 7SM SCT016 22/19 A3007 RMK AO2 T02150187
K6R3 240115Z AUTO 17005KT 7SM SCT016 22/19 A3007 RMK AO2 T02160186
K6R3 240055Z AUTO 17006KT 7SM CLR 22/19 A3006 RMK AO2 T02200185
K6R3 240035Z AUTO 17007KT 10SM CLR 22/18 A3006 RMK AO2 T02210182
K6R3 240015Z AUTO 17007KT 7SM CLR 23/18 A3007 RMK AO2 T02260180
K6R3 232355Z AUTO 17011G15KT 7SM CLR 23/18 A3007 RMK AO2 T02320177 10282 20232
K6R3 232335Z AUTO 17009KT 7SM CLR 24/18 A3007 RMK AO2 T02400175
K6R3 232315Z AUTO 18011G15KT 7SM CLR 25/17 A3007 RMK AO2 T02450172
K6R3 232255Z AUTO 19011G16KT 7SM CLR 24/17 A3007 RMK AO2 T02440170
K6R3 232235Z AUTO 17008G17KT 7SM CLR 25/17 A3008 RMK AO2 T02540167
K6R3 232215Z AUTO 18013G20KT 10SM CLR 25/16 A3008 RMK AO2 T02500163
K6R3 232155Z AUTO 17014G20KT 7SM SCT034 27/16 A3008 RMK AO2 T02690158
K6R3 232135Z AUTO 19011G18KT 7SM CLR 27/16 A3007 RMK AO2 T02660160